EST,Max TemperatureF,Mean TemperatureF,Min TemperatureF,Max Dew PointF,MeanDew PointF,Min DewpointF,Max Humidity, Mean Humidity, Min Humidity, Max Sea Level PressureIn, Mean Sea Level PressureIn, Min Sea Level PressureIn, Max VisibilityMiles, Mean VisibilityMiles, Min VisibilityMiles, Max Wind SpeedMPH, Mean Wind SpeedMPH, Max Gust SpeedMPH,PrecipitationIn, CloudCover, Events, WindDirDegrees
2013-2-1,22,16,9,9,3,-2,76,61,45,30.13,29.88,29.58,10,8,2,14,7,21,T,7,Snow,358
2013-2-2,21,13,4,9,3,-3,84,67,49,30.19,30.11,30.04,10,10,5,14,4,20,0.00,6,,212
2013-2-3,27,15,3,12,6,-1,92,65,38,30.05,29.93,29.75,10,8,0,7,0,10,0.00,4,Fog,252
2013-2-4,21,14,7,12,5,-11,88,64,39,29.95,29.78,29.69,10,6,1,16,4,25,T,7,Snow,321
2013-2-5,20,9,-3,6,-5,-12,72,52,31,30.07,29.99,29.92,10,10,9,13,2,17,0.00,2,,338
2013-2-6,26,17,7,21,10,-12,84,59,34,30.39,30.03,29.86,10,5,0,17,4,29,0.01,8,Fog-Snow,331
2013-2-7,14,7,0,-5,-9,-12,65,52,38,30.61,30.52,30.40,10,10,10,16,5,21,0.00,4,,360
2013-2-8,23,17,11,19,13,-2,92,71,50,30.46,30.19,29.94,10,2,0,12,3,17,0.44,8,Fog-Snow,29
2013-2-9,16,10,4,10,3,-4,84,66,48,30.37,30.10,29.93,10,6,2,22,12,31,0.00,5,Snow,359
2013-2-10,28,7,-14,5,-3,-18,100,66,31,30.51,30.41,30.32,10,10,7,10,1,14,0.00,0,,199
2013-2-11,38,19,0,33,20,-3,89,64,38,30.29,29.83,29.57,10,7,1,13,3,18,0.12,7,Rain-Snow,172
2013-2-12,36,34,31,30,28,23,89,77,64,29.84,29.67,29.57,10,5,1,21,6,29,0.10,8,Snow,225
2013-2-13,34,31,27,25,23,21,85,73,61,29.85,29.81,29.77,10,9,2,8,1,10,T,8,Snow,177
2013-2-14,34,28,21,24,19,16,92,70,47,29.97,29.90,29.77,10,10,9,6,1,,0.00,7,,0
2013-2-15,41,31,21,29,22,17,92,67,41,29.96,29.89,29.83,10,7,1,16,3,28,0.01,8,Snow,203
2013-2-16,31,24,16,17,10,3,74,60,45,30.02,29.99,29.94,10,10,10,16,7,23,T,4,,355
2013-2-17,16,12,8,4,1,-2,73,66,58,29.91,29.76,29.63,10,9,6,26,12,44,T,7,,330
2013-2-18,22,12,2,-2,-6,-12,69,46,23,30.18,30.06,29.88,10,10,6,22,8,32,T,3,,310
2013-2-19,40,20,0,31,17,-6,89,59,28,30.18,29.81,29.58,10,6,1,18,3,28,0.09,6,Snow,183
2013-2-20,32,26,20,30,19,12,92,74,55,29.77,29.64,29.57,10,4,1,16,5,24,0.07,8,Snow,281
2013-2-21,19,14,9,14,7,1,80,71,61,30.38,29.99,29.73,10,6,1,16,6,23,T,8,Snow,3
2013-2-22,33,22,11,20,16,9,88,74,59,30.47,30.37,30.27,10,10,8,9,1,12,0.00,5,,3
2013-2-23,34,30,25,29,26,19,85,72,59,30.25,30.06,29.94,10,5,0,14,5,22,0.05,8,Fog-Snow,191
2013-2-24,36,34,31,32,28,23,89,78,66,29.95,29.85,29.77,10,8,3,15,3,21,0.01,8,Snow,351
2013-2-25,36,33,30,29,28,27,92,84,75,30.26,30.13,29.97,10,8,5,9,3,13,T,8,Snow,359
2013-2-26,41,35,29,30,27,24,92,73,54,30.35,30.28,30.16,10,7,2,12,2,16,T,8,,165
2013-2-27,37,35,32,32,28,23,96,80,64,30.14,29.83,29.65,10,5,1,10,2,17,0.22,7,Snow,318
2013-2-28,41,36,31,33,31,28,100,83,65,29.66,29.61,29.57,10,6,0,7,1,9,0.04,7,Fog-Rain-Snow,1